createdAt,value
2023-03-03T00:01:06.395Z,36.33
2023-03-03T00:03:35.017Z,36.24
2023-03-03T00:06:04.423Z,36.33
2023-03-03T00:08:33.948Z,36.18
2023-03-03T00:11:03.383Z,36.15
2023-03-03T00:13:33.088Z,36.25
2023-03-03T00:16:14.697Z,36.28
2023-03-03T00:18:45.425Z,36.13
2023-03-03T00:21:32.168Z,36.06
2023-03-03T00:24:16.869Z,36.12
2023-03-03T00:26:47.388Z,36.22
2023-03-03T00:29:36.971Z,36.06
2023-03-03T00:32:26.078Z,36.17
2023-03-03T00:34:55.491Z,36.12
2023-03-03T00:37:34.336Z,36.07
2023-03-03T00:40:22.187Z,36.06
2023-03-03T00:42:53.260Z,36.16
2023-03-03T00:45:29.221Z,36.11
2023-03-03T00:47:58.887Z,36.11
2023-03-03T00:50:31.599Z,36.06
2023-03-03T00:53:04.345Z,36.17
2023-03-03T00:55:35.096Z,36.02
2023-03-03T00:58:03.517Z,36.14
2023-03-03T01:00:33.963Z,36.07
2023-03-03T01:03:04.688Z,36.24
2023-03-03T01:05:33.006Z,36.14
2023-03-03T01:08:01.720Z,36.07
2023-03-03T01:10:35.673Z,36.10
2023-03-03T01:13:04.436Z,36.10
2023-03-03T01:15:32.919Z,36.05
2023-03-03T01:18:01.271Z,36.15
2023-03-03T01:20:29.421Z,36.19
2023-03-03T01:22:57.571Z,36.08
2023-03-03T01:25:25.803Z,36.07
2023-03-03T01:27:55.399Z,36.03
2023-03-03T01:30:23.934Z,36.04
2023-03-03T01:32:52.083Z,36.06
2023-03-03T01:35:20.745Z,36.13
2023-03-03T01:37:49.022Z,36.04
2023-03-03T01:40:21.235Z,36.18
2023-03-03T01:42:49.944Z,36.11
2023-03-03T01:45:22.136Z,35.99
2023-03-03T01:47:55.073Z,35.96
2023-03-03T01:50:33.993Z,36.02
2023-03-03T01:53:05.494Z,35.99
2023-03-03T01:55:36.751Z,35.95
2023-03-03T01:58:09.727Z,35.92
2023-03-03T02:00:42.281Z,35.92
2023-03-03T02:03:11.020Z,36.02
2023-03-03T02:05:40.551Z,35.91
2023-03-03T02:08:11.052Z,36.06
2023-03-03T02:10:39.233Z,35.93
2023-03-03T02:13:07.286Z,35.93
2023-03-03T02:15:37.175Z,36.01
2023-03-03T02:18:11.125Z,36.00
2023-03-03T02:20:48.491Z,35.94
2023-03-03T02:23:23.860Z,36.04
2023-03-03T02:26:06.923Z,35.97
2023-03-03T02:28:36.337Z,35.89
2023-03-03T02:31:06.818Z,36.00
2023-03-03T02:33:34.972Z,35.84
2023-03-03T02:36:03.058Z,35.95
2023-03-03T02:38:37.633Z,35.83
2023-03-03T02:41:14.398Z,35.98
2023-03-03T02:43:51.377Z,35.88
2023-03-03T02:46:19.446Z,36.01
2023-03-03T02:48:47.625Z,35.92
2023-03-03T02:51:15.733Z,35.96
2023-03-03T02:53:43.800Z,35.79
2023-03-03T02:56:13.362Z,35.94
2023-03-03T02:58:41.478Z,35.85
2023-03-03T03:01:09.606Z,35.90
2023-03-03T03:03:37.987Z,36.00
2023-03-03T03:06:06.320Z,35.82
2023-03-03T03:08:34.508Z,35.93
2023-03-03T03:11:02.907Z,35.83
2023-03-03T03:13:33.116Z,35.81
2023-03-03T03:16:01.773Z,35.83
2023-03-03T03:18:30.057Z,35.82
2023-03-03T03:20:58.221Z,35.83
2023-03-03T03:23:26.341Z,35.82
2023-03-03T03:25:54.480Z,35.74
2023-03-03T03:28:22.558Z,35.65
2023-03-03T03:30:52.849Z,35.66
2023-03-03T03:33:21.184Z,35.83
2023-03-03T03:35:49.743Z,35.72
2023-03-03T03:38:18.196Z,35.86
2023-03-03T03:40:46.268Z,35.78
2023-03-03T03:43:14.574Z,35.73
2023-03-03T03:45:43.896Z,35.87
2023-03-03T03:48:13.998Z,35.86
2023-03-03T03:50:42.458Z,35.72
2023-03-03T03:53:10.605Z,35.83
2023-03-03T03:55:38.691Z,35.62
2023-03-03T03:58:07.009Z,35.77
2023-03-03T04:00:35.164Z,35.79
2023-03-03T04:03:03.447Z,35.73
2023-03-03T04:05:33.035Z,35.80
2023-03-03T04:08:01.097Z,35.73
2023-03-03T04:10:29.229Z,35.72
2023-03-03T04:12:57.295Z,35.78
2023-03-03T04:15:25.800Z,35.78
2023-03-03T04:17:53.920Z,35.54
2023-03-03T04:20:22.139Z,35.67
2023-03-03T04:22:52.174Z,35.64
2023-03-03T04:25:20.552Z,35.44
2023-03-03T04:27:48.725Z,35.72
2023-03-03T04:30:17.788Z,35.71
2023-03-03T04:32:45.973Z,35.57
2023-03-03T04:35:14.149Z,35.55
2023-03-03T04:37:42.271Z,35.56
2023-03-03T04:40:13.144Z,35.51
2023-03-03T04:42:41.248Z,35.57
2023-03-03T04:45:10.241Z,35.65
2023-03-03T04:47:38.419Z,35.66
2023-03-03T04:50:08.123Z,35.54
2023-03-03T04:52:36.258Z,35.57
2023-03-03T04:55:04.769Z,35.58
2023-03-03T04:57:34.284Z,35.62
2023-03-03T05:00:02.421Z,35.57
2023-03-03T05:02:30.670Z,35.52
2023-03-03T05:04:58.792Z,35.51
2023-03-03T05:07:26.998Z,35.54
2023-03-03T05:09:55.062Z,35.42
2023-03-03T05:12:23.161Z,35.58
2023-03-03T05:14:52.659Z,35.38
2023-03-03T05:17:20.796Z,35.45
2023-03-03T05:19:49.068Z,35.37
2023-03-03T05:22:17.554Z,35.47
2023-03-03T05:24:49.182Z,35.32
2023-03-03T05:27:17.555Z,35.29
2023-03-03T05:29:45.731Z,35.47
2023-03-03T05:32:15.262Z,35.53
2023-03-03T05:34:43.404Z,35.31
2023-03-03T05:37:11.592Z,35.46
2023-03-03T05:39:39.868Z,35.35
2023-03-03T05:42:07.975Z,35.39
2023-03-03T05:44:36.086Z,35.31
2023-03-03T05:47:04.185Z,35.37
2023-03-03T05:49:33.713Z,35.43
2023-03-03T05:52:02.170Z,35.46
2023-03-03T05:54:30.184Z,35.35
2023-03-03T05:56:58.491Z,35.41
2023-03-03T05:59:26.590Z,35.39
2023-03-03T06:01:54.732Z,35.32
2023-03-03T06:04:22.815Z,35.37
2023-03-03T06:06:52.750Z,35.43
2023-03-03T06:09:21.299Z,35.33
2023-03-03T06:11:49.439Z,35.34
2023-03-03T06:14:17.508Z,35.50
2023-03-03T06:16:45.619Z,35.46
2023-03-03T06:19:13.764Z,35.37
2023-03-03T06:21:42.131Z,35.36
2023-03-03T06:24:11.602Z,35.33
2023-03-03T06:26:39.707Z,35.33
2023-03-03T06:29:07.981Z,35.73
2023-03-03T06:31:36.887Z,35.69
2023-03-03T06:34:05.013Z,35.89
2023-03-03T06:36:33.109Z,35.94
2023-03-03T06:39:01.196Z,35.97
2023-03-03T06:41:30.906Z,35.99
2023-03-03T06:44:00.354Z,36.04
2023-03-03T06:46:28.523Z,35.97
2023-03-03T06:48:56.614Z,35.92
2023-03-03T06:51:28.435Z,35.97
2023-03-03T06:53:58.247Z,36.02
2023-03-03T06:56:26.936Z,36.05
2023-03-03T06:58:59.548Z,36.03
2023-03-03T07:01:36.426Z,35.97
2023-03-03T07:04:15.288Z,36.10
2023-03-03T07:06:43.458Z,36.05
2023-03-03T07:09:20.228Z,35.95
2023-03-03T07:11:48.629Z,36.06
2023-03-03T07:14:21.766Z,36.07
2023-03-03T07:16:57.835Z,36.03
2023-03-03T07:19:33.175Z,36.03
2023-03-03T07:22:07.989Z,36.10
2023-03-03T07:24:36.260Z,36.12
2023-03-03T07:27:13.960Z,36.28
2023-03-03T07:29:43.783Z,36.10
2023-03-03T07:32:26.065Z,36.54
2023-03-03T07:34:56.271Z,36.11
2023-03-03T07:37:33.004Z,36.41
2023-03-03T07:40:02.509Z,36.28
2023-03-03T07:42:40.264Z,36.51
2023-03-03T07:45:26.332Z,36.52
2023-03-03T07:48:02.561Z,36.32
2023-03-03T07:50:30.824Z,36.53
2023-03-03T07:53:02.394Z,36.49
2023-03-03T07:55:37.300Z,36.48
2023-03-03T07:58:22.401Z,36.57
2023-03-03T08:01:29.405Z,36.84
2023-03-03T08:03:59.382Z,36.55
2023-03-03T08:06:41.528Z,36.49
2023-03-03T08:09:28.667Z,36.65
2023-03-03T08:12:00.523Z,36.43
2023-03-03T08:14:31.597Z,36.30
2023-03-03T08:17:01.675Z,36.59
2023-03-03T08:19:32.511Z,36.33
2023-03-03T08:22:04.313Z,36.43
2023-03-03T08:24:32.372Z,36.44
2023-03-03T08:27:00.428Z,36.41
2023-03-03T08:29:28.522Z,36.33
2023-03-03T08:31:56.659Z,36.30
2023-03-03T08:34:24.876Z,36.39
2023-03-03T08:36:54.388Z,36.38
2023-03-03T08:39:22.618Z,36.42
2023-03-03T08:41:50.656Z,36.38
2023-03-03T08:44:20.040Z,36.62
2023-03-03T08:46:48.149Z,36.56
2023-03-03T08:49:17.728Z,36.55
2023-03-03T08:51:45.814Z,36.63
2023-03-03T08:54:15.547Z,36.50
2023-03-03T08:56:43.968Z,36.52
2023-03-03T08:59:12.330Z,36.57
2023-03-03T09:01:40.445Z,36.57
2023-03-03T09:04:08.731Z,36.68
2023-03-03T09:06:36.848Z,36.67
2023-03-03T09:09:05.061Z,36.88
2023-03-03T09:11:35.188Z,36.68
2023-03-03T09:14:09.054Z,36.66
2023-03-03T09:16:40.578Z,36.63
2023-03-03T09:19:23.878Z,36.58
2023-03-03T09:21:54.969Z,36.47
2023-03-03T09:24:27.733Z,36.35
2023-03-03T09:26:58.971Z,36.36
2023-03-03T09:29:29.380Z,36.56
2023-03-03T09:31:59.220Z,36.58
2023-03-03T09:34:39.258Z,36.71
2023-03-03T09:37:20.046Z,36.78
2023-03-03T09:39:51.626Z,36.75
2023-03-03T09:42:57.069Z,37.35
2023-03-03T09:45:53.080Z,37.18
2023-03-03T09:48:50.322Z,37.20
2023-03-03T09:51:39.802Z,37.04
2023-03-03T09:54:27.875Z,36.99
2023-03-03T09:57:06.701Z,36.80
2023-03-03T09:59:51.335Z,36.86
2023-03-03T10:02:42.573Z,37.01
2023-03-03T10:05:18.463Z,36.88
2023-03-03T10:07:56.890Z,36.88
2023-03-03T10:10:50.200Z,36.88
2023-03-03T10:13:30.786Z,36.81
2023-03-03T10:16:28.662Z,36.84
2023-03-03T10:19:02.480Z,36.81
2023-03-03T10:21:37.364Z,36.68
2023-03-03T10:24:19.601Z,36.84
2023-03-03T10:27:12.338Z,36.67
2023-03-03T10:29:51.641Z,36.60
2023-03-03T10:32:45.780Z,37.00
2023-03-03T10:35:36.756Z,36.99
2023-03-03T10:38:19.992Z,36.82
2023-03-03T10:40:56.255Z,36.88
2023-03-03T10:43:44.537Z,36.91
2023-03-03T10:46:23.488Z,36.83
2023-03-03T10:49:13.757Z,36.77
2023-03-03T10:51:53.756Z,36.69
2023-03-03T10:54:36.688Z,36.68
2023-03-03T10:57:15.153Z,36.57
2023-03-03T10:59:55.930Z,36.45
2023-03-03T11:02:31.396Z,36.58
2023-03-03T11:05:24.231Z,36.50
2023-03-03T11:07:58.982Z,36.57
2023-03-03T11:10:41.433Z,36.47
2023-03-03T11:13:17.766Z,36.46
2023-03-03T11:16:07.299Z,36.48
2023-03-03T11:18:44.797Z,36.51
2023-03-03T11:21:24.285Z,36.50
2023-03-03T11:24:12.606Z,36.50
2023-03-03T11:26:57.371Z,36.56
2023-03-03T11:29:37.323Z,36.49
2023-03-03T11:32:20.269Z,36.52
2023-03-03T11:34:59.083Z,36.53
2023-03-03T11:37:36.792Z,36.52
2023-03-03T11:40:15.214Z,36.42
2023-03-03T11:42:54.692Z,36.52
2023-03-03T11:45:28.854Z,36.40
2023-03-03T11:48:03.674Z,36.40
2023-03-03T11:50:37.248Z,36.50
2023-03-03T11:53:26.983Z,37.38
2023-03-03T11:56:00.272Z,37.02
2023-03-03T11:58:33.028Z,37.08
2023-03-03T12:01:09.562Z,37.07
2023-03-03T12:03:41.808Z,37.14
2023-03-03T12:06:19.902Z,37.22
2023-03-03T12:09:11.941Z,37.69
2023-03-03T12:11:49.880Z,37.36
2023-03-03T12:14:33.179Z,37.30
2023-03-03T12:17:04.886Z,37.14
2023-03-03T12:19:39.936Z,37.26
2023-03-03T12:22:19.617Z,37.29
2023-03-03T12:25:19.859Z,37.56
2023-03-03T12:27:55.470Z,37.19
2023-03-03T12:30:38.992Z,37.35
2023-03-03T12:33:22.465Z,37.64
2023-03-03T12:35:58.206Z,37.35
2023-03-03T12:38:36.506Z,37.62
2023-03-03T12:41:11.991Z,37.50
2023-03-03T12:43:52.695Z,37.70
2023-03-03T12:46:30.036Z,37.53
2023-03-03T12:48:58.413Z,37.32
2023-03-03T12:51:38.402Z,37.19
2023-03-03T12:54:36.903Z,37.83
2023-03-03T12:57:17.873Z,37.42
2023-03-03T12:59:57.120Z,37.32
2023-03-03T13:02:44.607Z,37.48
2023-03-03T13:05:23.005Z,37.42
2023-03-03T13:08:02.764Z,37.50
2023-03-03T13:10:39.769Z,37.47
2023-03-03T13:13:15.663Z,37.52
2023-03-03T13:15:55.776Z,37.42
2023-03-03T13:18:37.567Z,37.69
2023-03-03T13:21:12.407Z,37.37
2023-03-03T13:23:49.311Z,37.65
2023-03-03T13:26:23.920Z,37.51
2023-03-03T13:29:03.716Z,37.43
2023-03-03T13:31:36.319Z,37.52
2023-03-03T13:34:04.883Z,37.52
2023-03-03T13:36:41.624Z,37.45
2023-03-03T13:39:20.200Z,37.49
2023-03-03T13:41:57.158Z,37.26
2023-03-03T13:44:32.381Z,37.38
2023-03-03T13:47:13.104Z,37.29
2023-03-03T13:50:03.848Z,37.26
2023-03-03T13:52:35.180Z,37.14
2023-03-03T13:55:22.560Z,37.19
2023-03-03T13:58:01.230Z,37.29
2023-03-03T14:00:41.565Z,37.16
2023-03-03T14:03:33.777Z,37.17
2023-03-03T14:06:05.252Z,37.03
2023-03-03T14:08:49.269Z,37.21
2023-03-03T14:11:24.891Z,37.30
2023-03-03T14:14:04.950Z,37.25
2023-03-03T14:16:50.985Z,37.41
2023-03-03T14:19:22.891Z,37.40
2023-03-03T14:22:02.197Z,37.33
2023-03-03T14:24:30.353Z,37.45
2023-03-03T14:27:00.873Z,37.34
2023-03-03T14:29:33.952Z,37.39
2023-03-03T14:32:22.021Z,37.40
2023-03-03T14:34:59.520Z,37.49
2023-03-03T14:37:29.574Z,37.28
2023-03-03T14:40:16.348Z,37.53
2023-03-03T14:42:50.079Z,37.39
2023-03-03T14:45:31.308Z,37.43
2023-03-03T14:48:07.141Z,37.39
2023-03-03T14:50:38.126Z,37.37
2023-03-03T14:53:17.249Z,37.52
2023-03-03T14:55:47.526Z,37.43
2023-03-03T14:58:36.388Z,37.66
2023-03-03T15:01:22.124Z,37.60
2023-03-03T15:04:00.352Z,37.41
2023-03-03T15:06:37.970Z,37.49
2023-03-03T15:09:34.142Z,37.82
2023-03-03T15:12:03.952Z,37.39
2023-03-03T15:14:37.086Z,37.39
2023-03-03T15:17:25.262Z,37.82
2023-03-03T15:20:16.980Z,37.43
2023-03-03T15:22:49.610Z,37.40
2023-03-03T15:25:41.921Z,37.48
2023-03-03T15:28:22.815Z,37.69
2023-03-03T15:30:56.532Z,37.36
2023-03-03T15:33:33.718Z,37.40
2023-03-03T15:36:10.263Z,37.41
2023-03-03T15:38:48.717Z,37.54
2023-03-03T15:41:27.025Z,37.35
2023-03-03T15:44:06.854Z,37.53
2023-03-03T15:46:50.795Z,37.52
2023-03-03T15:49:38.476Z,37.55
2023-03-03T15:52:22.771Z,37.51
2023-03-03T15:55:07.274Z,37.53
2023-03-03T15:57:45.185Z,37.56
2023-03-03T16:00:36.856Z,37.71
2023-03-03T16:03:13.769Z,37.43
2023-03-03T16:05:48.433Z,37.43
2023-03-03T16:08:21.306Z,37.34
2023-03-03T16:11:04.050Z,37.44
2023-03-03T16:13:59.504Z,37.70
2023-03-03T16:16:37.765Z,37.36
2023-03-03T16:19:23.547Z,37.34
2023-03-03T16:22:25.408Z,37.46
2023-03-03T16:25:08.106Z,37.48
2023-03-03T16:27:41.232Z,37.26
2023-03-03T16:30:27.794Z,37.34
2023-03-03T16:33:09.836Z,37.26
2023-03-03T16:35:41.084Z,37.13
2023-03-03T16:38:18.209Z,37.32
2023-03-03T16:40:54.070Z,37.41
2023-03-03T16:43:28.900Z,37.37
2023-03-03T16:46:00.614Z,37.32
2023-03-03T16:48:39.150Z,37.31
2023-03-03T16:51:33.729Z,37.36
2023-03-03T16:54:08.141Z,37.26
2023-03-03T16:56:44.662Z,37.28
2023-03-03T16:59:33.644Z,37.48
2023-03-03T17:02:15.771Z,37.53
2023-03-03T17:04:48.524Z,37.32
2023-03-03T17:07:33.705Z,37.25
2023-03-03T17:10:23.179Z,37.25
2023-03-03T17:13:16.786Z,37.35
2023-03-03T17:15:54.689Z,37.22
2023-03-03T17:18:38.783Z,37.33
2023-03-03T17:21:17.799Z,37.29
2023-03-03T17:24:07.390Z,37.07
2023-03-03T17:26:47.743Z,37.09
2023-03-03T17:29:33.610Z,37.07
2023-03-03T17:32:12.304Z,37.20
2023-03-03T17:34:53.019Z,37.20
2023-03-03T17:37:32.418Z,37.23
2023-03-03T17:40:12.792Z,37.06
2023-03-03T17:42:48.117Z,37.02
2023-03-03T17:45:19.339Z,37.19
2023-03-03T17:48:12.602Z,37.04
2023-03-03T17:50:58.338Z,36.95
2023-03-03T17:53:40.082Z,36.98
2023-03-03T17:56:17.971Z,36.85
2023-03-03T17:59:04.555Z,36.92
2023-03-03T18:01:50.679Z,36.94
2023-03-03T18:04:51.992Z,37.05
2023-03-03T18:07:51.385Z,37.21
2023-03-03T18:10:42.551Z,37.04
2023-03-03T18:13:25.861Z,37.11
2023-03-03T18:16:12.010Z,37.05
2023-03-03T18:19:00.295Z,37.04
2023-03-03T18:21:35.268Z,37.03
2023-03-03T18:24:29.387Z,37.22
2023-03-03T18:27:13.692Z,37.18
2023-03-03T18:30:03.484Z,37.13
2023-03-03T18:32:42.883Z,37.11
2023-03-03T18:35:29.146Z,37.10
2023-03-03T18:37:57.642Z,37.04
2023-03-03T18:40:32.798Z,37.12
2023-03-03T18:43:21.162Z,37.01
2023-03-03T18:45:51.582Z,37.20
2023-03-03T18:48:22.184Z,37.03
2023-03-03T18:50:53.098Z,36.98
2023-03-03T18:53:26.872Z,36.91
2023-03-03T18:55:56.623Z,37.01
2023-03-03T18:58:41.429Z,37.05
2023-03-03T19:01:40.196Z,36.95
2023-03-03T19:04:19.408Z,36.90
2023-03-03T19:07:18.949Z,36.93
2023-03-03T19:10:01.525Z,36.85
2023-03-03T19:12:48.927Z,36.80
2023-03-03T19:15:50.313Z,36.83
2023-03-03T19:18:23.873Z,36.96
2023-03-03T19:20:57.281Z,36.91
2023-03-03T19:23:47.551Z,36.91
2023-03-03T19:26:55.762Z,36.92
2023-03-03T19:29:43.921Z,36.84
2023-03-03T19:32:28.512Z,36.87
2023-03-03T19:35:05.579Z,36.89
2023-03-03T19:37:44.399Z,36.90
2023-03-03T19:40:22.328Z,36.89
2023-03-03T19:43:00.646Z,36.88
2023-03-03T19:45:41.977Z,36.80
2023-03-03T19:48:23.062Z,36.90
2023-03-03T19:50:55.172Z,36.83
2023-03-03T19:53:33.645Z,36.83
2023-03-03T19:56:19.685Z,36.92
2023-03-03T19:59:13.842Z,36.83
2023-03-03T20:01:55.866Z,36.85
2023-03-03T20:04:53.349Z,36.93
2023-03-03T20:07:30.120Z,36.95
2023-03-03T20:10:08.763Z,37.00
2023-03-03T20:12:53.439Z,36.85
2023-03-03T20:15:26.378Z,36.97
2023-03-03T20:18:04.536Z,36.96
2023-03-03T20:20:51.541Z,36.78
2023-03-03T20:23:27.721Z,36.89
2023-03-03T20:26:01.721Z,36.91
2023-03-03T20:29:08.477Z,36.94
2023-03-03T20:31:45.514Z,36.88
2023-03-03T20:34:21.776Z,36.88
2023-03-03T20:37:00.384Z,36.79
2023-03-03T20:39:43.609Z,36.99
2023-03-03T20:42:26.221Z,36.83
2023-03-03T20:45:16.937Z,36.83
2023-03-03T20:47:56.740Z,36.89
2023-03-03T20:50:31.852Z,36.89
2023-03-03T20:53:07.773Z,36.87
2023-03-03T20:55:44.922Z,37.00
2023-03-03T20:58:19.875Z,36.86
2023-03-03T21:00:53.898Z,36.85
2023-03-03T21:03:29.896Z,37.02
2023-03-03T21:06:00.101Z,36.86
2023-03-03T21:08:49.673Z,36.88
2023-03-03T21:11:22.579Z,36.90
2023-03-03T21:13:54.253Z,36.93
2023-03-03T21:16:33.414Z,36.90
2023-03-03T21:19:05.146Z,36.87
2023-03-03T21:21:34.855Z,36.82
2023-03-03T21:24:03.004Z,36.96
2023-03-03T21:26:49.646Z,36.85
2023-03-03T21:29:28.887Z,36.97
2023-03-03T21:31:58.369Z,36.95
2023-03-03T21:34:32.160Z,36.92
2023-03-03T21:37:01.326Z,36.89
2023-03-03T21:39:31.241Z,36.94
2023-03-03T21:42:02.551Z,36.96
2023-03-03T21:44:36.806Z,36.73
2023-03-03T21:47:07.135Z,36.81
2023-03-03T21:49:37.599Z,37.12
2023-03-03T21:52:06.031Z,36.96
2023-03-03T21:54:34.130Z,36.95
2023-03-03T21:57:02.423Z,36.83
2023-03-03T21:59:30.595Z,36.87
2023-03-03T22:01:58.718Z,36.99
2023-03-03T22:04:27.343Z,36.97
2023-03-03T22:06:56.888Z,36.75
2023-03-03T22:09:25.181Z,36.86
2023-03-03T22:11:53.259Z,37.07
2023-03-03T22:14:21.339Z,36.95
2023-03-03T22:16:49.496Z,37.00
2023-03-03T22:19:17.626Z,37.18
2023-03-03T22:21:46.962Z,36.83
2023-03-03T22:24:16.480Z,36.94
2023-03-03T22:26:44.948Z,36.90
2023-03-03T22:29:13.081Z,36.95
2023-03-03T22:31:41.374Z,37.06
2023-03-03T22:34:09.562Z,37.07
2023-03-03T22:36:37.642Z,37.07
2023-03-03T22:39:05.836Z,36.98
2023-03-03T22:41:35.301Z,37.11
2023-03-03T22:44:03.415Z,36.95
2023-03-03T22:46:31.575Z,37.05
2023-03-03T22:48:59.696Z,37.00
2023-03-03T22:51:27.928Z,37.03
2023-03-03T22:53:56.017Z,37.01
2023-03-03T22:56:24.080Z,37.04
2023-03-03T22:58:53.578Z,37.08
2023-03-03T23:01:21.594Z,37.03
2023-03-03T23:03:50.281Z,37.00
2023-03-03T23:06:18.411Z,36.98
2023-03-03T23:08:46.509Z,36.97
2023-03-03T23:11:14.590Z,37.19
2023-03-03T23:13:42.685Z,37.06
2023-03-03T23:16:12.276Z,37.01
2023-03-03T23:18:40.440Z,37.11
2023-03-03T23:21:08.615Z,37.00
2023-03-03T23:23:36.642Z,37.09
2023-03-03T23:26:04.815Z,37.12
2023-03-03T23:28:32.938Z,37.16
2023-03-03T23:31:01.063Z,37.07
2023-03-03T23:33:30.517Z,37.23
2023-03-03T23:35:58.584Z,37.12
2023-03-03T23:38:26.647Z,37.14
2023-03-03T23:40:54.689Z,37.07
2023-03-03T23:43:22.735Z,36.85
2023-03-03T23:45:50.802Z,37.09
2023-03-03T23:48:20.804Z,36.89
2023-03-03T23:50:50.594Z,37.01
2023-03-03T23:53:19.344Z,37.14
2023-03-03T23:55:47.389Z,37.02
2023-03-03T23:58:15.400Z,36.96
